Bagley, Minnesota
Current Conditions -  °F | °C
As of 2:35 PM on Friday 28 Nov 2014 (Local Time) from KFSE Reporting Station
Overcast Overcast  
Wind Chill:   Ceiling: 3200
Heat Index: 16°   Visibility: 10mi
Dew Point:   Wind: 6mph
Humidity: 68%   Direction: 80°E
Pressure: 29.8"   Gusts: NA
Location:  47.52°N, 95.4°W
Report Text: KFSE 282035Z AUTO 08005KT 10SM BKN032 OVC038 M09/M14 A2980 RMK AO2
Loading
Personal Weather Stations






























Interactive Weather Map New forecast layout! Learn more

10-Day Weather Forecast

Advertisements
Track Severe Weather on mobile